sensor_id;sensor_type;location;lat;lon;timestamp;P1;durP1;ratioP1;P2;durP2;ratioP2
20381;SDS011;10350;51.280;12.400;2023-08-31T00:02:11;40.67;;;38.58;;
20381;SDS011;10350;51.280;12.400;2023-08-31T00:04:37;42.53;;;40.15;;
20381;SDS011;10350;51.280;12.400;2023-08-31T00:07:03;41.88;;;39.75;;
20381;SDS011;10350;51.280;12.400;2023-08-31T00:09:29;39.28;;;37.25;;
20381;SDS011;10350;51.280;12.400;2023-08-31T00:11:55;38.65;;;36.65;;
20381;SDS011;10350;51.280;12.400;2023-08-31T00:14:21;41.28;;;39.13;;
20381;SDS011;10350;51.280;12.400;2023-08-31T00:16:47;37.28;;;35.35;;
20381;SDS011;10350;51.280;12.400;2023-08-31T00:19:15;39.65;;;37.55;;
20381;SDS011;10350;51.280;12.400;2023-08-31T00:21:40;38.83;;;36.83;;
20381;SDS011;10350;51.280;12.400;2023-08-31T00:24:06;36.38;;;34.47;;
20381;SDS011;10350;51.280;12.400;2023-08-31T00:26:33;40.33;;;38.22;;
20381;SDS011;10350;51.280;12.400;2023-08-31T00:28:59;38.83;;;36.78;;
20381;SDS011;10350;51.280;12.400;2023-08-31T00:31:25;39.00;;;37.03;;
20381;SDS011;10350;51.280;12.400;2023-08-31T00:33:52;39.75;;;37.60;;
20381;SDS011;10350;51.280;12.400;2023-08-31T00:36:18;38.30;;;36.33;;
20381;SDS011;10350;51.280;12.400;2023-08-31T00:38:44;40.38;;;38.20;;
20381;SDS011;10350;51.280;12.400;2023-08-31T00:41:11;37.88;;;35.95;;
20381;SDS011;10350;51.280;12.400;2023-08-31T00:43:37;39.88;;;37.78;;
20381;SDS011;10350;51.280;12.400;2023-08-31T00:46:03;39.72;;;37.70;;
20381;SDS011;10350;51.280;12.400;2023-08-31T00:48:29;38.10;;;35.83;;
20381;SDS011;10350;51.280;12.400;2023-08-31T00:50:55;37.33;;;35.30;;
20381;SDS011;10350;51.280;12.400;2023-08-31T00:53:21;36.85;;;34.95;;
20381;SDS011;10350;51.280;12.400;2023-08-31T00:55:48;36.30;;;34.35;;
20381;SDS011;10350;51.280;12.400;2023-08-31T00:58:14;35.20;;;33.38;;
20381;SDS011;10350;51.280;12.400;2023-08-31T01:00:43;33.97;;;32.20;;
20381;SDS011;10350;51.280;12.400;2023-08-31T01:03:15;33.38;;;31.67;;
20381;SDS011;10350;51.280;12.400;2023-08-31T01:05:52;33.40;;;31.60;;
20381;SDS011;10350;51.280;12.400;2023-08-31T01:08:21;33.35;;;31.65;;
20381;SDS011;10350;51.280;12.400;2023-08-31T01:13:37;32.72;;;31.05;;
20381;SDS011;10350;51.280;12.400;2023-08-31T01:16:05;32.50;;;30.85;;
20381;SDS011;10350;51.280;12.400;2023-08-31T01:18:32;34.72;;;32.90;;
20381;SDS011;10350;51.280;12.400;2023-08-31T01:26:11;33.20;;;31.50;;
20381;SDS011;10350;51.280;12.400;2023-08-31T01:28:38;33.47;;;31.58;;
20381;SDS011;10350;51.280;12.400;2023-08-31T01:31:04;33.47;;;31.77;;
20381;SDS011;10350;51.280;12.400;2023-08-31T01:33:34;35.28;;;33.47;;
20381;SDS011;10350;51.280;12.400;2023-08-31T01:36:00;36.03;;;34.22;;
20381;SDS011;10350;51.280;12.400;2023-08-31T01:38:29;32.28;;;30.67;;
20381;SDS011;10350;51.280;12.400;2023-08-31T01:41:06;35.15;;;33.35;;
20381;SDS011;10350;51.280;12.400;2023-08-31T01:43:33;32.60;;;30.98;;
20381;SDS011;10350;51.280;12.400;2023-08-31T01:45:59;34.92;;;33.05;;
20381;SDS011;10350;51.280;12.400;2023-08-31T01:48:25;33.28;;;31.58;;
20381;SDS011;10350;51.280;12.400;2023-08-31T01:50:51;37.17;;;35.28;;
20381;SDS011;10350;51.280;12.400;2023-08-31T01:53:17;35.42;;;33.40;;
20381;SDS011;10350;51.280;12.400;2023-08-31T01:55:43;33.85;;;32.13;;
20381;SDS011;10350;51.280;12.400;2023-08-31T01:58:09;33.42;;;31.73;;
20381;SDS011;10350;51.280;12.400;2023-08-31T02:00:35;33.75;;;32.05;;
20381;SDS011;10350;51.280;12.400;2023-08-31T02:03:03;32.25;;;30.63;;
20381;SDS011;10350;51.280;12.400;2023-08-31T02:05:29;32.72;;;31.08;;
20381;SDS011;10350;51.280;12.400;2023-08-31T02:07:55;33.70;;;32.00;;
20381;SDS011;10350;51.280;12.400;2023-08-31T02:10:21;33.88;;;32.17;;
20381;SDS011;10350;51.280;12.400;2023-08-31T02:12:47;31.05;;;29.42;;
20381;SDS011;10350;51.280;12.400;2023-08-31T02:15:13;34.65;;;32.42;;
20381;SDS011;10350;51.280;12.400;2023-08-31T02:17:39;32.97;;;31.27;;
20381;SDS011;10350;51.280;12.400;2023-08-31T02:20:05;34.67;;;32.90;;
20381;SDS011;10350;51.280;12.400;2023-08-31T02:22:35;33.45;;;31.73;;
20381;SDS011;10350;51.280;12.400;2023-08-31T02:25:01;34.05;;;32.33;;
20381;SDS011;10350;51.280;12.400;2023-08-31T02:27:27;35.25;;;33.45;;
20381;SDS011;10350;51.280;12.400;2023-08-31T02:29:53;35.33;;;33.53;;
20381;SDS011;10350;51.280;12.400;2023-08-31T02:32:20;31.30;;;29.70;;
20381;SDS011;10350;51.280;12.400;2023-08-31T02:34:45;32.42;;;30.80;;
20381;SDS011;10350;51.280;12.400;2023-08-31T02:37:11;34.55;;;32.75;;
20381;SDS011;10350;51.280;12.400;2023-08-31T02:39:37;35.63;;;33.83;;
20381;SDS011;10350;51.280;12.400;2023-08-31T02:42:05;33.88;;;32.13;;
20381;SDS011;10350;51.280;12.400;2023-08-31T02:44:31;35.53;;;33.72;;
20381;SDS011;10350;51.280;12.400;2023-08-31T02:46:57;33.70;;;32.00;;
20381;SDS011;10350;51.280;12.400;2023-08-31T02:49:23;34.13;;;32.33;;
20381;SDS011;10350;51.280;12.400;2023-08-31T02:51:49;34.78;;;32.97;;
20381;SDS011;10350;51.280;12.400;2023-08-31T02:54:15;32.95;;;31.17;;
20381;SDS011;10350;51.280;12.400;2023-08-31T02:56:41;33.80;;;32.10;;
20381;SDS011;10350;51.280;12.400;2023-08-31T02:59:07;33.95;;;32.25;;
20381;SDS011;10350;51.280;12.400;2023-08-31T03:01:33;35.65;;;33.85;;
20381;SDS011;10350;51.280;12.400;2023-08-31T03:03:58;33.83;;;31.92;;
20381;SDS011;10350;51.280;12.400;2023-08-31T03:06:25;37.15;;;35.25;;
20381;SDS011;10350;51.280;12.400;2023-08-31T03:08:51;35.95;;;33.90;;
20381;SDS011;10350;51.280;12.400;2023-08-31T03:11:17;35.30;;;33.40;;
20381;SDS011;10350;51.280;12.400;2023-08-31T03:13:43;33.58;;;31.83;;
20381;SDS011;10350;51.280;12.400;2023-08-31T03:16:09;34.35;;;32.45;;
20381;SDS011;10350;51.280;12.400;2023-08-31T03:18:35;36.42;;;34.53;;
20381;SDS011;10350;51.280;12.400;2023-08-31T03:21:01;33.35;;;31.65;;
20381;SDS011;10350;51.280;12.400;2023-08-31T03:23:29;36.20;;;34.22;;
20381;SDS011;10350;51.280;12.400;2023-08-31T03:25:55;38.17;;;36.20;;
20381;SDS011;10350;51.280;12.400;2023-08-31T03:28:21;35.00;;;33.15;;
20381;SDS011;10350;51.280;12.400;2023-08-31T03:30:54;34.35;;;32.55;;
20381;SDS011;10350;51.280;12.400;2023-08-31T03:33:20;36.35;;;34.22;;
20381;SDS011;10350;51.280;12.400;2023-08-31T03:35:46;32.83;;;31.05;;
20381;SDS011;10350;51.280;12.400;2023-08-31T03:38:12;35.85;;;33.95;;
20381;SDS011;10350;51.280;12.400;2023-08-31T03:40:38;34.70;;;32.80;;
20381;SDS011;10350;51.280;12.400;2023-08-31T03:43:04;33.40;;;31.65;;
20381;SDS011;10350;51.280;12.400;2023-08-31T03:45:30;34.03;;;32.10;;
20381;SDS011;10350;51.280;12.400;2023-08-31T03:47:56;35.13;;;33.22;;
20381;SDS011;10350;51.280;12.400;2023-08-31T03:50:21;34.70;;;32.80;;
20381;SDS011;10350;51.280;12.400;2023-08-31T03:52:47;34.13;;;31.98;;
20381;SDS011;10350;51.280;12.400;2023-08-31T03:55:13;36.80;;;34.88;;
20381;SDS011;10350;51.280;12.400;2023-08-31T03:57:39;37.08;;;34.97;;
20381;SDS011;10350;51.280;12.400;2023-08-31T04:00:06;33.30;;;31.50;;
20381;SDS011;10350;51.280;12.400;2023-08-31T04:02:37;36.75;;;34.60;;
20381;SDS011;10350;51.280;12.400;2023-08-31T04:05:03;34.90;;;33.00;;
20381;SDS011;10350;51.280;12.400;2023-08-31T04:07:30;35.78;;;33.67;;
20381;SDS011;10350;51.280;12.400;2023-08-31T04:09:57;35.58;;;33.67;;
20381;SDS011;10350;51.280;12.400;2023-08-31T04:12:23;32.50;;;30.77;;
20381;SDS011;10350;51.280;12.400;2023-08-31T04:14:49;35.55;;;33.45;;
20381;SDS011;10350;51.280;12.400;2023-08-31T04:17:15;38.50;;;36.42;;
20381;SDS011;10350;51.280;12.400;2023-08-31T04:19:41;39.13;;;36.92;;
20381;SDS011;10350;51.280;12.400;2023-08-31T04:22:07;37.60;;;35.30;;
20381;SDS011;10350;51.280;12.400;2023-08-31T04:24:33;36.72;;;34.65;;
20381;SDS011;10350;51.280;12.400;2023-08-31T04:26:59;40.72;;;38.38;;
20381;SDS011;10350;51.280;12.400;2023-08-31T04:29:25;36.35;;;34.33;;
20381;SDS011;10350;51.280;12.400;2023-08-31T04:31:51;39.20;;;37.03;;
20381;SDS011;10350;51.280;12.400;2023-08-31T04:34:17;38.03;;;35.97;;
20381;SDS011;10350;51.280;12.400;2023-08-31T04:36:42;42.08;;;39.72;;
20381;SDS011;10350;51.280;12.400;2023-08-31T04:39:08;40.58;;;38.03;;
20381;SDS011;10350;51.280;12.400;2023-08-31T04:41:34;40.83;;;38.58;;
20381;SDS011;10350;51.280;12.400;2023-08-31T04:44:00;42.33;;;39.88;;
20381;SDS011;10350;51.280;12.400;2023-08-31T04:46:26;40.20;;;37.92;;
20381;SDS011;10350;51.280;12.400;2023-08-31T04:48:52;39.00;;;36.85;;
20381;SDS011;10350;51.280;12.400;2023-08-31T04:51:31;41.55;;;39.22;;
20381;SDS011;10350;51.280;12.400;2023-08-31T04:53:58;38.63;;;36.33;;
20381;SDS011;10350;51.280;12.400;2023-08-31T04:56:23;35.70;;;33.72;;
20381;SDS011;10350;51.280;12.400;2023-08-31T04:58:49;38.03;;;35.67;;
20381;SDS011;10350;51.280;12.400;2023-08-31T05:01:15;36.95;;;34.88;;
20381;SDS011;10350;51.280;12.400;2023-08-31T05:03:41;39.47;;;37.30;;
20381;SDS011;10350;51.280;12.400;2023-08-31T05:06:07;38.70;;;36.63;;
20381;SDS011;10350;51.280;12.400;2023-08-31T05:08:33;42.63;;;39.70;;
20381;SDS011;10350;51.280;12.400;2023-08-31T05:10:59;40.03;;;37.78;;
20381;SDS011;10350;51.280;12.400;2023-08-31T05:13:25;39.47;;;36.95;;
20381;SDS011;10350;51.280;12.400;2023-08-31T05:15:51;41.08;;;38.38;;
20381;SDS011;10350;51.280;12.400;2023-08-31T05:18:17;40.42;;;38.17;;
20381;SDS011;10350;51.280;12.400;2023-08-31T05:20:46;43.72;;;41.22;;
20381;SDS011;10350;51.280;12.400;2023-08-31T05:23:13;41.97;;;39.63;;
20381;SDS011;10350;51.280;12.400;2023-08-31T05:25:42;37.05;;;35.05;;
20381;SDS011;10350;51.280;12.400;2023-08-31T05:28:08;40.58;;;38.20;;
20381;SDS011;10350;51.280;12.400;2023-08-31T05:30:34;39.28;;;37.00;;
20381;SDS011;10350;51.280;12.400;2023-08-31T05:33:01;40.30;;;38.03;;
20381;SDS011;10350;51.280;12.400;2023-08-31T05:35:30;38.08;;;35.90;;
20381;SDS011;10350;51.280;12.400;2023-08-31T05:37:56;40.38;;;38.22;;
20381;SDS011;10350;51.280;12.400;2023-08-31T05:40:22;44.05;;;41.50;;
20381;SDS011;10350;51.280;12.400;2023-08-31T05:42:48;50.53;;;47.67;;
20381;SDS011;10350;51.280;12.400;2023-08-31T05:45:14;54.33;;;51.13;;
20381;SDS011;10350;51.280;12.400;2023-08-31T05:47:40;54.90;;;51.90;;
20381;SDS011;10350;51.280;12.400;2023-08-31T05:50:06;59.88;;;56.47;;
20381;SDS011;10350;51.280;12.400;2023-08-31T05:52:32;62.92;;;59.40;;
20381;SDS011;10350;51.280;12.400;2023-08-31T05:54:58;58.47;;;54.80;;
20381;SDS011;10350;51.280;12.400;2023-08-31T05:57:25;58.03;;;54.60;;
20381;SDS011;10350;51.280;12.400;2023-08-31T05:59:52;58.25;;;54.90;;
20381;SDS011;10350;51.280;12.400;2023-08-31T06:02:18;55.78;;;52.72;;
20381;SDS011;10350;51.280;12.400;2023-08-31T06:04:44;52.42;;;49.10;;
20381;SDS011;10350;51.280;12.400;2023-08-31T06:07:10;50.47;;;47.58;;
20381;SDS011;10350;51.280;12.400;2023-08-31T06:09:36;50.38;;;47.58;;
20381;SDS011;10350;51.280;12.400;2023-08-31T06:12:03;47.85;;;45.22;;
20381;SDS011;10350;51.280;12.400;2023-08-31T06:14:29;46.17;;;43.50;;
20381;SDS011;10350;51.280;12.400;2023-08-31T06:16:55;46.30;;;43.70;;
20381;SDS011;10350;51.280;12.400;2023-08-31T06:19:21;41.55;;;39.22;;
20381;SDS011;10350;51.280;12.400;2023-08-31T06:21:47;43.97;;;41.60;;
20381;SDS011;10350;51.280;12.400;2023-08-31T06:24:13;38.30;;;36.13;;
20381;SDS011;10350;51.280;12.400;2023-08-31T06:26:39;42.08;;;39.67;;
20381;SDS011;10350;51.280;12.400;2023-08-31T06:29:05;45.58;;;42.67;;
20381;SDS011;10350;51.280;12.400;2023-08-31T06:31:33;44.00;;;41.40;;
20381;SDS011;10350;51.280;12.400;2023-08-31T06:33:59;44.00;;;41.45;;
20381;SDS011;10350;51.280;12.400;2023-08-31T06:36:24;44.63;;;42.00;;
20381;SDS011;10350;51.280;12.400;2023-08-31T06:38:50;44.42;;;42.00;;
20381;SDS011;10350;51.280;12.400;2023-08-31T06:41:16;42.28;;;39.97;;
20381;SDS011;10350;51.280;12.400;2023-08-31T06:43:42;40.15;;;37.95;;
20381;SDS011;10350;51.280;12.400;2023-08-31T06:46:08;43.92;;;41.33;;
20381;SDS011;10350;51.280;12.400;2023-08-31T06:48:34;44.47;;;42.03;;
20381;SDS011;10350;51.280;12.400;2023-08-31T06:51:00;42.83;;;40.47;;
20381;SDS011;10350;51.280;12.400;2023-08-31T06:55:54;42.75;;;40.45;;
20381;SDS011;10350;51.280;12.400;2023-08-31T06:58:20;46.97;;;44.28;;
20381;SDS011;10350;51.280;12.400;2023-08-31T07:00:46;48.00;;;45.45;;
20381;SDS011;10350;51.280;12.400;2023-08-31T07:03:13;55.45;;;52.45;;
20381;SDS011;10350;51.280;12.400;2023-08-31T07:05:41;53.72;;;50.72;;
20381;SDS011;10350;51.280;12.400;2023-08-31T07:08:07;47.90;;;45.03;;
20381;SDS011;10350;51.280;12.400;2023-08-31T07:10:33;49.00;;;46.38;;
20381;SDS011;10350;51.280;12.400;2023-08-31T07:13:03;56.30;;;53.03;;
20381;SDS011;10350;51.280;12.400;2023-08-31T07:15:29;55.30;;;52.28;;
20381;SDS011;10350;51.280;12.400;2023-08-31T07:17:55;53.05;;;50.22;;
20381;SDS011;10350;51.280;12.400;2023-08-31T07:20:21;64.72;;;61.15;;
20381;SDS011;10350;51.280;12.400;2023-08-31T07:22:47;64.57;;;61.10;;
20381;SDS011;10350;51.280;12.400;2023-08-31T07:25:13;62.17;;;58.70;;
20381;SDS011;10350;51.280;12.400;2023-08-31T07:27:39;60.20;;;56.78;;
20381;SDS011;10350;51.280;12.400;2023-08-31T07:30:05;56.20;;;53.15;;
20381;SDS011;10350;51.280;12.400;2023-08-31T07:32:32;52.20;;;49.30;;
20381;SDS011;10350;51.280;12.400;2023-08-31T07:34:58;50.22;;;47.55;;
20381;SDS011;10350;51.280;12.400;2023-08-31T07:37:24;43.58;;;41.03;;
20381;SDS011;10350;51.280;12.400;2023-08-31T07:39:50;43.40;;;41.10;;
20381;SDS011;10350;51.280;12.400;2023-08-31T07:42:16;44.70;;;42.28;;
20381;SDS011;10350;51.280;12.400;2023-08-31T07:44:42;44.25;;;41.85;;
20381;SDS011;10350;51.280;12.400;2023-08-31T07:47:09;41.85;;;39.55;;
20381;SDS011;10350;51.280;12.400;2023-08-31T07:49:35;44.75;;;42.22;;
20381;SDS011;10350;51.280;12.400;2023-08-31T07:52:01;43.22;;;40.72;;
20381;SDS011;10350;51.280;12.400;2023-08-31T07:54:28;45.38;;;42.80;;
20381;SDS011;10350;51.280;12.400;2023-08-31T07:56:54;45.42;;;42.95;;
20381;SDS011;10350;51.280;12.400;2023-08-31T07:59:19;47.45;;;44.88;;
20381;SDS011;10350;51.280;12.400;2023-08-31T08:01:46;48.83;;;46.20;;
20381;SDS011;10350;51.280;12.400;2023-08-31T08:04:12;46.70;;;44.20;;
20381;SDS011;10350;51.280;12.400;2023-08-31T08:06:38;43.78;;;41.47;;
20381;SDS011;10350;51.280;12.400;2023-08-31T08:09:04;44.85;;;42.22;;
20381;SDS011;10350;51.280;12.400;2023-08-31T08:11:30;44.53;;;42.10;;
20381;SDS011;10350;51.280;12.400;2023-08-31T08:13:56;47.65;;;45.13;;
20381;SDS011;10350;51.280;12.400;2023-08-31T08:16:22;47.35;;;44.50;;
20381;SDS011;10350;51.280;12.400;2023-08-31T08:18:49;44.10;;;41.67;;
20381;SDS011;10350;51.280;12.400;2023-08-31T08:21:15;44.83;;;42.42;;
20381;SDS011;10350;51.280;12.400;2023-08-31T08:23:41;43.85;;;41.55;;
20381;SDS011;10350;51.280;12.400;2023-08-31T08:26:07;47.90;;;44.80;;
20381;SDS011;10350;51.280;12.400;2023-08-31T08:28:33;47.22;;;44.78;;
20381;SDS011;10350;51.280;12.400;2023-08-31T08:31:02;50.75;;;47.92;;
20381;SDS011;10350;51.280;12.400;2023-08-31T08:33:29;54.33;;;51.40;;
20381;SDS011;10350;51.280;12.400;2023-08-31T08:35:58;51.10;;;48.40;;
20381;SDS011;10350;51.280;12.400;2023-08-31T08:38:25;52.22;;;49.03;;
20381;SDS011;10350;51.280;12.400;2023-08-31T08:40:51;46.67;;;43.97;;
20381;SDS011;10350;51.280;12.400;2023-08-31T08:43:18;44.15;;;41.75;;
20381;SDS011;10350;51.280;12.400;2023-08-31T08:45:48;42.08;;;39.85;;
20381;SDS011;10350;51.280;12.400;2023-08-31T08:48:16;40.08;;;37.97;;
20381;SDS011;10350;51.280;12.400;2023-08-31T08:50:43;43.00;;;40.70;;
20381;SDS011;10350;51.280;12.400;2023-08-31T08:53:10;45.15;;;42.75;;
20381;SDS011;10350;51.280;12.400;2023-08-31T08:58:04;48.88;;;46.10;;
20381;SDS011;10350;51.280;12.400;2023-08-31T09:00:30;52.30;;;49.47;;
20381;SDS011;10350;51.280;12.400;2023-08-31T09:02:56;49.88;;;47.25;;
20381;SDS011;10350;51.280;12.400;2023-08-31T09:05:23;47.92;;;44.95;;
20381;SDS011;10350;51.280;12.400;2023-08-31T09:13:01;43.40;;;41.08;;
20381;SDS011;10350;51.280;12.400;2023-08-31T09:15:35;44.78;;;42.30;;
20381;SDS011;10350;51.280;12.400;2023-08-31T09:18:02;47.15;;;44.65;;
20381;SDS011;10350;51.280;12.400;2023-08-31T09:20:28;49.13;;;46.53;;
20381;SDS011;10350;51.280;12.400;2023-08-31T09:22:55;50.38;;;47.72;;
20381;SDS011;10350;51.280;12.400;2023-08-31T09:25:21;42.50;;;40.27;;
20381;SDS011;10350;51.280;12.400;2023-08-31T09:27:48;39.03;;;37.03;;
20381;SDS011;10350;51.280;12.400;2023-08-31T09:30:14;38.17;;;36.17;;
20381;SDS011;10350;51.280;12.400;2023-08-31T09:32:40;37.33;;;35.13;;
20381;SDS011;10350;51.280;12.400;2023-08-31T09:35:09;42.13;;;39.92;;
20381;SDS011;10350;51.280;12.400;2023-08-31T09:37:34;49.45;;;46.88;;
20381;SDS011;10350;51.280;12.400;2023-08-31T09:40:04;47.85;;;45.40;;
20381;SDS011;10350;51.280;12.400;2023-08-31T09:42:36;47.97;;;45.50;;
20381;SDS011;10350;51.280;12.400;2023-08-31T09:45:03;45.92;;;43.55;;
20381;SDS011;10350;51.280;12.400;2023-08-31T09:47:29;46.60;;;44.17;;
20381;SDS011;10350;51.280;12.400;2023-08-31T09:49:55;51.10;;;48.45;;
20381;SDS011;10350;51.280;12.400;2023-08-31T09:52:22;53.65;;;50.83;;
20381;SDS011;10350;51.280;12.400;2023-08-31T09:54:48;49.92;;;46.97;;
20381;SDS011;10350;51.280;12.400;2023-08-31T09:57:15;44.03;;;41.72;;
20381;SDS011;10350;51.280;12.400;2023-08-31T09:59:43;41.47;;;39.38;;
20381;SDS011;10350;51.280;12.400;2023-08-31T10:02:10;46.28;;;43.80;;
20381;SDS011;10350;51.280;12.400;2023-08-31T10:04:36;47.03;;;44.40;;
20381;SDS011;10350;51.280;12.400;2023-08-31T10:07:04;61.55;;;58.35;;
20381;SDS011;10350;51.280;12.400;2023-08-31T10:09:30;66.13;;;62.63;;
20381;SDS011;10350;51.280;12.400;2023-08-31T10:11:56;57.95;;;54.75;;
20381;SDS011;10350;51.280;12.400;2023-08-31T10:14:23;51.92;;;49.22;;
20381;SDS011;10350;51.280;12.400;2023-08-31T10:16:49;48.65;;;46.05;;
20381;SDS011;10350;51.280;12.400;2023-08-31T10:21:43;47.40;;;44.80;;
20381;SDS011;10350;51.280;12.400;2023-08-31T10:24:09;49.45;;;46.85;;
20381;SDS011;10350;51.280;12.400;2023-08-31T10:26:36;48.97;;;46.28;;
20381;SDS011;10350;51.280;12.400;2023-08-31T10:29:01;52.28;;;49.45;;
20381;SDS011;10350;51.280;12.400;2023-08-31T10:31:29;55.13;;;52.20;;
20381;SDS011;10350;51.280;12.400;2023-08-31T10:33:59;53.45;;;50.58;;
20381;SDS011;10350;51.280;12.400;2023-08-31T10:39:22;49.80;;;47.08;;
20381;SDS011;10350;51.280;12.400;2023-08-31T10:41:54;50.95;;;48.05;;
20381;SDS011;10350;51.280;12.400;2023-08-31T10:44:21;49.15;;;46.47;;
20381;SDS011;10350;51.280;12.400;2023-08-31T10:46:48;46.83;;;44.30;;
20381;SDS011;10350;51.280;12.400;2023-08-31T10:49:15;51.45;;;48.75;;
20381;SDS011;10350;51.280;12.400;2023-08-31T10:52:24;53.40;;;50.55;;
20381;SDS011;10350;51.280;12.400;2023-08-31T10:54:32;50.65;;;47.90;;
20381;SDS011;10350;51.280;12.400;2023-08-31T10:59:26;52.75;;;49.95;;
20381;SDS011;10350;51.280;12.400;2023-08-31T11:02:02;49.88;;;46.92;;
20381;SDS011;10350;51.280;12.400;2023-08-31T11:04:29;48.10;;;45.60;;
20381;SDS011;10350;51.280;12.400;2023-08-31T11:07:15;49.42;;;46.83;;
20381;SDS011;10350;51.280;12.400;2023-08-31T11:09:41;50.42;;;47.78;;
20381;SDS011;10350;51.280;12.400;2023-08-31T11:12:08;59.78;;;56.65;;
20381;SDS011;10350;51.280;12.400;2023-08-31T11:14:34;56.58;;;53.58;;
20381;SDS011;10350;51.280;12.400;2023-08-31T11:17:00;63.03;;;59.60;;
20381;SDS011;10350;51.280;12.400;2023-08-31T11:19:27;59.25;;;56.17;;
20381;SDS011;10350;51.280;12.400;2023-08-31T11:21:54;61.38;;;58.10;;
20381;SDS011;10350;51.280;12.400;2023-08-31T11:24:20;65.18;;;61.30;;
20381;SDS011;10350;51.280;12.400;2023-08-31T11:26:52;61.45;;;58.25;;
20381;SDS011;10350;51.280;12.400;2023-08-31T11:29:19;65.05;;;61.63;;
20381;SDS011;10350;51.280;12.400;2023-08-31T11:31:44;64.80;;;61.40;;
20381;SDS011;10350;51.280;12.400;2023-08-31T11:34:12;67.90;;;64.15;;
20381;SDS011;10350;51.280;12.400;2023-08-31T11:36:39;66.87;;;63.07;;
20381;SDS011;10350;51.280;12.400;2023-08-31T11:39:05;63.97;;;60.57;;
20381;SDS011;10350;51.280;12.400;2023-08-31T11:41:35;65.70;;;62.25;;
20381;SDS011;10350;51.280;12.400;2023-08-31T11:44:03;64.22;;;60.85;;
20381;SDS011;10350;51.280;12.400;2023-08-31T11:46:29;62.92;;;59.60;;
20381;SDS011;10350;51.280;12.400;2023-08-31T11:48:56;65.35;;;61.85;;
20381;SDS011;10350;51.280;12.400;2023-08-31T11:51:22;67.22;;;63.65;;
20381;SDS011;10350;51.280;12.400;2023-08-31T11:53:48;70.45;;;66.75;;
20381;SDS011;10350;51.280;12.400;2023-08-31T11:56:14;66.53;;;63.00;;
20381;SDS011;10350;51.280;12.400;2023-08-31T11:58:40;67.55;;;64.00;;
20381;SDS011;10350;51.280;12.400;2023-08-31T12:01:17;67.50;;;63.90;;
20381;SDS011;10350;51.280;12.400;2023-08-31T12:03:44;63.78;;;60.35;;
20381;SDS011;10350;51.280;12.400;2023-08-31T12:06:10;61.90;;;58.65;;
20381;SDS011;10350;51.280;12.400;2023-08-31T12:08:36;59.55;;;56.47;;
20381;SDS011;10350;51.280;12.400;2023-08-31T12:11:03;68.67;;;65.00;;
20381;SDS011;10350;51.280;12.400;2023-08-31T12:13:31;64.88;;;61.33;;
20381;SDS011;10350;51.280;12.400;2023-08-31T12:15:57;62.72;;;59.40;;
20381;SDS011;10350;51.280;12.400;2023-08-31T12:18:23;62.40;;;59.13;;
20381;SDS011;10350;51.280;12.400;2023-08-31T12:20:50;69.88;;;66.25;;
20381;SDS011;10350;51.280;12.400;2023-08-31T12:23:16;68.90;;;65.20;;
20381;SDS011;10350;51.280;12.400;2023-08-31T12:25:48;69.18;;;65.53;;
20381;SDS011;10350;51.280;12.400;2023-08-31T12:28:14;65.15;;;61.75;;
20381;SDS011;10350;51.280;12.400;2023-08-31T12:30:41;68.75;;;65.15;;
20381;SDS011;10350;51.280;12.400;2023-08-31T12:33:09;65.28;;;61.88;;
20381;SDS011;10350;51.280;12.400;2023-08-31T12:35:35;71.82;;;68.03;;
20381;SDS011;10350;51.280;12.400;2023-08-31T12:38:01;67.65;;;63.97;;
20381;SDS011;10350;51.280;12.400;2023-08-31T12:40:28;68.40;;;64.70;;
20381;SDS011;10350;51.280;12.400;2023-08-31T12:42:55;67.85;;;64.05;;
20381;SDS011;10350;51.280;12.400;2023-08-31T12:45:21;69.25;;;65.65;;
20381;SDS011;10350;51.280;12.400;2023-08-31T12:47:47;71.32;;;67.63;;
20381;SDS011;10350;51.280;12.400;2023-08-31T12:50:13;68.45;;;64.68;;
20381;SDS011;10350;51.280;12.400;2023-08-31T12:52:47;56.85;;;53.78;;
20381;SDS011;10350;51.280;12.400;2023-08-31T12:55:13;54.15;;;51.30;;
20381;SDS011;10350;51.280;12.400;2023-08-31T12:57:39;52.30;;;49.55;;
20381;SDS011;10350;51.280;12.400;2023-08-31T13:00:06;51.40;;;48.73;;
20381;SDS011;10350;51.280;12.400;2023-08-31T13:02:41;52.33;;;49.63;;
20381;SDS011;10350;51.280;12.400;2023-08-31T13:05:08;57.13;;;54.10;;
20381;SDS011;10350;51.280;12.400;2023-08-31T13:07:35;54.83;;;51.83;;
20381;SDS011;10350;51.280;12.400;2023-08-31T13:10:01;55.10;;;52.20;;
20381;SDS011;10350;51.280;12.400;2023-08-31T13:12:29;51.70;;;48.97;;
20381;SDS011;10350;51.280;12.400;2023-08-31T13:14:55;49.03;;;46.53;;
20381;SDS011;10350;51.280;12.400;2023-08-31T13:17:21;50.80;;;48.03;;
20381;SDS011;10350;51.280;12.400;2023-08-31T13:19:51;50.13;;;47.53;;
20381;SDS011;10350;51.280;12.400;2023-08-31T13:22:17;51.33;;;48.33;;
20381;SDS011;10350;51.280;12.400;2023-08-31T13:24:43;49.33;;;46.72;;
20381;SDS011;10350;51.280;12.400;2023-08-31T13:27:09;50.90;;;48.22;;
20381;SDS011;10350;51.280;12.400;2023-08-31T13:29:35;54.70;;;51.80;;
20381;SDS011;10350;51.280;12.400;2023-08-31T13:32:01;52.97;;;50.25;;
20381;SDS011;10350;51.280;12.400;2023-08-31T13:34:27;50.50;;;47.75;;
20381;SDS011;10350;51.280;12.400;2023-08-31T13:36:53;51.97;;;49.30;;
20381;SDS011;10350;51.280;12.400;2023-08-31T13:39:19;52.88;;;50.13;;
20381;SDS011;10350;51.280;12.400;2023-08-31T13:41:45;55.20;;;51.83;;
20381;SDS011;10350;51.280;12.400;2023-08-31T13:44:11;53.97;;;51.17;;
20381;SDS011;10350;51.280;12.400;2023-08-31T13:46:37;52.00;;;49.30;;
20381;SDS011;10350;51.280;12.400;2023-08-31T13:49:03;51.83;;;49.15;;
20381;SDS011;10350;51.280;12.400;2023-08-31T13:51:29;53.38;;;50.60;;
20381;SDS011;10350;51.280;12.400;2023-08-31T13:53:55;51.22;;;48.55;;
20381;SDS011;10350;51.280;12.400;2023-08-31T13:56:21;52.55;;;49.80;;
20381;SDS011;10350;51.280;12.400;2023-08-31T13:58:48;55.85;;;52.95;;
20381;SDS011;10350;51.280;12.400;2023-08-31T14:01:13;50.80;;;47.92;;
20381;SDS011;10350;51.280;12.400;2023-08-31T14:03:39;54.67;;;51.80;;
20381;SDS011;10350;51.280;12.400;2023-08-31T14:06:06;53.80;;;51.00;;
20381;SDS011;10350;51.280;12.400;2023-08-31T14:08:33;50.90;;;48.30;;
20381;SDS011;10350;51.280;12.400;2023-08-31T14:10:59;49.53;;;46.90;;
20381;SDS011;10350;51.280;12.400;2023-08-31T14:13:26;52.35;;;49.60;;
20381;SDS011;10350;51.280;12.400;2023-08-31T14:15:52;53.38;;;50.60;;
20381;SDS011;10350;51.280;12.400;2023-08-31T14:18:18;52.63;;;49.78;;
20381;SDS011;10350;51.280;12.400;2023-08-31T14:20:44;56.05;;;53.13;;
20381;SDS011;10350;51.280;12.400;2023-08-31T14:23:10;57.13;;;53.92;;
20381;SDS011;10350;51.280;12.400;2023-08-31T14:25:38;50.72;;;48.10;;
20381;SDS011;10350;51.280;12.400;2023-08-31T14:28:04;53.78;;;50.80;;
20381;SDS011;10350;51.280;12.400;2023-08-31T14:30:30;52.47;;;49.75;;
20381;SDS011;10350;51.280;12.400;2023-08-31T14:32:56;50.80;;;48.15;;